| time (UTC) | temp C | wind direction | speed KPH | gust KPH | rain 1hr cm | rain 24hr cm | rain mn cm | humidity % | barometer mb |
| 20260509024004 | 17 | 46 | 4.8 | 16.1 | 0.00 | 0.00 | 0.00 | 54 | 1027.9 |
| 20260509023004 | 16 | 11 | 4.8 | 16.1 | 0.00 | 0.00 | 0.00 | 55 | 1027.9 |
| 20260509022004 | 16 | 51 | 6.4 | 24.1 | 0.00 | 0.00 | 0.00 | 55 | 1027.9 |
| 20260509021004 | 16 | 45 | 6.4 | 17.7 | 0.00 | 0.00 | 0.00 | 57 | 1028.1 |
| 20260509020004 | 15 | 49 | 6.4 | 19.3 | 0.00 | 0.00 | 0.00 | 58 | 1028.2 |
| 20260509015004 | 15 | 54 | 4.8 | 17.7 | 0.00 | 0.00 | 0.00 | 59 | 1028.3 |
| 20260509014004 | 15 | 63 | 8.0 | 30.6 | 0.00 | 0.00 | 0.00 | 60 | 1028.4 |
| 20260509013025 | 15 | 44 | 6.4 | 22.5 | 0.00 | 0.00 | 0.00 | 60 | 1028.5 |
| 20260509012004 | 14 | 66 | 4.8 | 24.1 | 0.00 | 0.00 | 0.00 | 62 | 1028.5 |
| 20260509011004 | 13 | 71 | 4.8 | 17.7 | 0.00 | 0.00 | 0.00 | 63 | 1028.6 |
| 20260509010005 | 13 | 53 | 3.2 | 9.7 | 0.00 | 0.00 | 0.00 | 65 | 1028.7 |
| 20260509005003 | 12 | 68 | 4.8 | 14.5 | 0.00 | 0.00 | 0.00 | 66 | 1028.7 |
| 20260509004003 | 12 | 110 | 3.2 | 14.5 | 0.00 | 0.00 | 0.00 | 68 | 1028.6 |
| 20260509002025 | 11 | 72 | 3.2 | 14.5 | 0.00 | 0.00 | 0.00 | 70 | 1028.6 |
| 20260509001025 | 11 | 120 | 3.2 | 8.0 | 0.00 | 0.00 | 0.00 | 70 | 1028.6 |
| 20260509000025 | 11 | 167 | 1.6 | 14.5 | 0.00 | 0.00 | 0.00 | 70 | 1028.5 |
| 20260508235004 | 11 | 192 | 1.6 | 8.0 | 0.00 | 0.00 | 0.00 | 69 | 1028.4 |
| 20260508234004 | 11 | 92 | 1.6 | 11.3 | 0.00 | 0.00 | 0.00 | 69 | 1028.4 |
| 20260508233004 | 11 | 81 | 1.6 | 9.7 | 0.00 | 0.00 | 0.00 | 69 | 1028.3 |
| 20260508232004 | 11 | 284 | 0.0 | 3.2 | 0.00 | 0.00 | 0.00 | 68 | 1028.4 |
| 20260508231004 | 11 | 287 | 0.0 | 3.2 | 0.00 | 0.00 | 0.00 | 68 | 1028.4 |
| 20260508230004 | 11 | 91 | 1.6 | 4.8 | 0.00 | 0.00 | 0.00 | 68 | 1028.2 |
| 20260508225025 | 11 | 100 | 1.6 | 6.4 | 0.00 | 0.00 | 0.00 | 67 | 1028.2 |
| 20260508224004 | 11 | 115 | 1.6 | 6.4 | 0.00 | 0.00 | 0.00 | 67 | 1028.1 |
| 20260508223003 | 11 | 118 | 1.6 | 9.7 | 0.00 | 0.00 | 0.00 | 66 | 1028.0 |
| 20260508222004 | 12 | 181 | 1.6 | 6.4 | 0.00 | 0.00 | 0.00 | 66 | 1027.9 |
| 20260508221004 | 12 | 132 | 3.2 | 14.5 | 0.00 | 0.00 | 0.00 | 65 | 1027.7 |
| 20260508220003 | 12 | 52 | 3.2 | 11.3 | 0.00 | 0.00 | 0.00 | 65 | 1027.5 |
| 20260508215003 | 12 | 4 | 1.6 | 12.9 | 0.00 | 0.00 | 0.00 | 64 | 1027.3 |
| 20260508214003 | 12 | 65 | 3.2 | 14.5 | 0.00 | 0.00 | 0.00 | 64 | 1027.3 |
| 20260508213003 | 12 | 88 | 4.8 | 14.5 | 0.00 | 0.00 | 0.00 | 63 | 1027.2 |
| 20260508212003 | 12 | 64 | 3.2 | 16.1 | 0.00 | 0.00 | 0.00 | 64 | 1027.1 |
| 20260508211003 | 12 | 40 | 3.2 | 14.5 | 0.00 | 0.00 | 0.00 | 65 | 1027.0 |
| 20260508210003 | 12 | 53 | 1.6 | 6.4 | 0.00 | 0.00 | 0.00 | 65 | 1027.0 |
| 20260508205003 | 12 | 52 | 1.6 | 8.0 | 0.00 | 0.00 | 0.00 | 65 | 1027.0 |
| 20260508204003 | 12 | 48 | 3.2 | 12.9 | 0.00 | 0.00 | 0.00 | 66 | 1026.9 |
| 20260508203024 | 11 | 277 | 1.6 | 4.8 | 0.00 | 0.00 | 0.00 | 66 | 1026.9 |
| 20260508202003 | 11 | 20 | 1.6 | 6.4 | 0.00 | 0.00 | 0.00 | 66 | 1026.9 |
| 20260508201003 | 11 | 168 | 3.2 | 11.3 | 0.00 | 0.00 | 0.00 | 66 | 1026.9 |
| 20260508200004 | 11 | 95 | 3.2 | 14.5 | 0.00 | 0.00 | 0.00 | 65 | 1026.8 |
| 20260508195003 | 11 | 94 | 1.6 | 4.8 | 0.00 | 0.00 | 0.00 | 65 | 1026.8 |
| 20260508194004 | 12 | 154 | 3.2 | 9.7 | 0.00 | 0.00 | 0.00 | 65 | 1026.9 |
| 20260508193003 | 12 | 119 | 1.6 | 11.3 | 0.00 | 0.00 | 0.00 | 65 | 1026.7 |
| 20260508192003 | 12 | 229 | 1.6 | 6.4 | 0.00 | 0.00 | 0.00 | 64 | 1026.6 |
| 20260508191003 | 12 | 142 | 3.2 | 11.3 | 0.00 | 0.00 | 0.00 | 64 | 1026.7 |
| 20260508190004 | 12 | 156 | 3.2 | 19.3 | 0.00 | 0.00 | 0.00 | 64 | 1026.7 |
| 20260508185004 | 12 | 117 | 1.6 | 6.4 | 0.00 | 0.00 | 0.00 | 64 | 1026.8 |
| 20260508184004 | 12 | 163 | 1.6 | 8.0 | 0.00 | 0.00 | 0.00 | 64 | 1026.8 |
| 20260508183004 | 12 | 236 | 1.6 | 6.4 | 0.00 | 0.00 | 0.00 | 63 | 1026.8 |
| 20260508182004 | 12 | 96 | 1.6 | 4.8 | 0.00 | 0.00 | 0.00 | 62 | 1026.7 |
| 20260508181025 | 12 | 175 | 1.6 | 9.7 | 0.00 | 0.00 | 0.00 | 62 | 1026.8 |
| 20260508180004 | 12 | 191 | 1.6 | 6.4 | 0.00 | 0.00 | 0.00 | 62 | 1026.6 |
| 20260508175004 | 12 | 167 | 1.6 | 6.4 | 0.00 | 0.00 | 0.00 | 61 | 1026.7 |
| 20260508174004 | 13 | 219 | 1.6 | 9.7 | 0.00 | 0.00 | 0.00 | 61 | 1026.8 |
| 20260508173004 | 13 | 140 | 1.6 | 9.7 | 0.00 | 0.00 | 0.00 | 61 | 1026.9 |
| 20260508172025 | 13 | 123 | 1.6 | 6.4 | 0.00 | 0.00 | 0.00 | 60 | 1027.0 |
| 20260508171004 | 13 | 54 | 1.6 | 12.9 | 0.00 | 0.00 | 0.00 | 60 | 1027.0 |
| 20260508170004 | 13 | 78 | 1.6 | 8.0 | 0.00 | 0.00 | 0.00 | 59 | 1026.9 |
| 20260508165004 | 13 | 88 | 1.6 | 8.0 | 0.00 | 0.00 | 0.00 | 59 | 1026.8 |
| 20260508164004 | 13 | 55 | 1.6 | 11.3 | 0.00 | 0.00 | 0.00 | 58 | 1026.7 |
| 20260508163025 | 13 | 36 | 1.6 | 9.7 | 0.00 | 0.00 | 0.00 | 58 | 1026.5 |
| 20260508162025 | 13 | 71 | 3.2 | 12.9 | 0.00 | 0.00 | 0.00 | 57 | 1026.5 |
| 20260508161004 | 13 | 111 | 3.2 | 12.9 | 0.00 | 0.00 | 0.00 | 57 | 1026.3 |
| 20260508160004 | 13 | 333 | 3.2 | 9.7 | 0.00 | 0.00 | 0.00 | 57 | 1026.3 |
| 20260508155003 | 14 | 22 | 3.2 | 11.3 | 0.00 | 0.00 | 0.00 | 56 | 1026.3 |
| 20260508154004 | 14 | 280 | 3.2 | 12.9 | 0.00 | 0.00 | 0.00 | 56 | 1026.3 |
| 20260508153003 | 14 | 140 | 3.2 | 9.7 | 0.00 | 0.00 | 0.00 | 55 | 1026.2 |
| 20260508152024 | 14 | 153 | 1.6 | 8.0 | 0.00 | 0.00 | 0.00 | 55 | 1026.3 |
| 20260508151004 | 14 | 201 | 3.2 | 9.7 | 0.00 | 0.00 | 0.00 | 55 | 1026.4 |
| 20260508150025 | 15 | 226 | 1.6 | 4.8 | 0.00 | 0.00 | 0.00 | 55 | 1026.3 |
| 20260508145024 | 15 | 246 | 1.6 | 4.8 | 0.00 | 0.00 | 0.00 | 55 | 1026.4 |
| 20260508144004 | 15 | 222 | 1.6 | 6.4 | 0.00 | 0.00 | 0.00 | 55 | 1026.5 |
| 20260508143004 | 15 | 174 | 3.2 | 11.3 | 0.00 | 0.00 | 0.00 | 55 | 1026.7 |
| 20260508142025 | 15 | 56 | 1.6 | 6.4 | 0.00 | 0.00 | 0.00 | 54 | 1026.7 |
| 20260508141004 | 15 | 58 | 1.6 | 6.4 | 0.00 | 0.00 | 0.00 | 55 | 1026.8 |
| 20260508140004 | 15 | 120 | 1.6 | 12.9 | 0.00 | 0.00 | 0.00 | 55 | 1026.8 |
| 20260508135004 | 15 | 156 | 1.6 | 9.7 | 0.00 | 0.00 | 0.00 | 55 | 1026.8 |
| 20260508134004 | 15 | 114 | 1.6 | 11.3 | 0.00 | 0.00 | 0.00 | 56 | 1026.7 |
| 20260508133004 | 15 | 128 | 1.6 | 4.8 | 0.00 | 0.00 | 0.00 | 56 | 1026.6 |
| 20260508132004 | 15 | 158 | 1.6 | 9.7 | 0.00 | 0.00 | 0.00 | 57 | 1026.6 |
| 20260508131003 | 15 | 75 | 3.2 | 6.4 | 0.00 | 0.00 | 0.00 | 57 | 1026.6 |
| 20260508130004 | 15 | 1 | 3.2 | 11.3 | 0.00 | 0.00 | 0.00 | 57 | 1026.5 |
| 20260508125003 | 15 | 80 | 1.6 | 11.3 | 0.00 | 0.00 | 0.00 | 57 | 1026.4 |
| 20260508124024 | 15 | 346 | 1.6 | 6.4 | 0.00 | 0.00 | 0.00 | 57 | 1026.4 |
| 20260508123003 | 15 | 358 | 1.6 | 6.4 | 0.00 | 0.00 | 0.00 | 57 | 1026.3 |
| 20260508122003 | 16 | 350 | 1.6 | 6.4 | 0.00 | 0.00 | 0.00 | 57 | 1026.4 |
| 20260508121003 | 16 | 9 | 3.2 | 8.0 | 0.00 | 0.00 | 0.00 | 57 | 1026.4 |
| 20260508120004 | 16 | 6 | 3.2 | 12.9 | 0.00 | 0.00 | 0.00 | 57 | 1026.4 |
| 20260508115024 | 16 | 351 | 3.2 | 11.3 | 0.00 | 0.00 | 0.00 | 57 | 1026.4 |
| 20260508114003 | 16 | 6 | 3.2 | 6.4 | 0.00 | 0.00 | 0.00 | 57 | 1026.5 |
| 20260508113004 | 16 | 5 | 3.2 | 9.7 | 0.00 | 0.00 | 0.00 | 57 | 1026.5 |
| 20260508112003 | 16 | 4 | 1.6 | 8.0 | 0.00 | 0.00 | 0.00 | 57 | 1026.4 |
| 20260508111003 | 16 | 345 | 1.6 | 4.8 | 0.00 | 0.00 | 0.00 | 57 | 1026.5 |
| 20260508110024 | 16 | 347 | 3.2 | 6.4 | 0.00 | 0.00 | 0.00 | 56 | 1026.5 |
| 20260508105003 | 16 | 347 | 3.2 | 6.4 | 0.00 | 0.00 | 0.00 | 56 | 1026.5 |
| 20260508104003 | 17 | 340 | 3.2 | 8.0 | 0.00 | 0.00 | 0.00 | 55 | 1026.4 |
| 20260508103004 | 17 | 343 | 1.6 | 4.8 | 0.00 | 0.00 | 0.00 | 54 | 1026.3 |
| 20260508102004 | 17 | 6 | 1.6 | 4.8 | 0.00 | 0.00 | 0.00 | 53 | 1026.3 |
| 20260508101004 | 17 | 346 | 1.6 | 3.2 | 0.00 | 0.00 | 0.00 | 53 | 1026.3 |
| 20260508100004 | 18 | 3 | 1.6 | 4.8 | 0.00 | 0.00 | 0.00 | 52 | 1026.3 |
| 20260508095025 | 18 | 14 | 1.6 | 9.7 | 0.00 | 0.00 | 0.00 | 51 | 1026.2 |
| 20260508094003 | 18 | 16 | 1.6 | 6.4 | 0.00 | 0.00 | 0.00 | 50 | 1026.2 |
| 20260508093004 | 19 | 34 | 1.6 | 6.4 | 0.00 | 0.00 | 0.00 | 49 | 1026.1 |
| 20260508092025 | 19 | 316 | 3.2 | 9.7 | 0.00 | 0.00 | 0.00 | 49 | 1026.0 |
| 20260508091025 | 20 | 60 | 3.2 | 11.3 | 0.00 | 0.00 | 0.00 | 48 | 1026.0 |
| 20260508090004 | 20 | 41 | 3.2 | 8.0 | 0.00 | 0.00 | 0.00 | 48 | 1025.9 |
| 20260508085025 | 20 | 32 | 3.2 | 11.3 | 0.00 | 0.00 | 0.00 | 47 | 1025.8 |
| 20260508084004 | 21 | 29 | 4.8 | 20.9 | 0.00 | 0.00 | 0.00 | 46 | 1025.8 |
| 20260508083004 | 21 | 39 | 4.8 | 17.7 | 0.00 | 0.00 | 0.00 | 46 | 1025.8 |
| 20260508082004 | 21 | 33 | 4.8 | 14.5 | 0.00 | 0.00 | 0.00 | 46 | 1025.8 |
| 20260508081004 | 21 | 154 | 4.8 | 25.7 | 0.00 | 0.00 | 0.00 | 46 | 1025.8 |
| 20260508080004 | 21 | 32 | 3.2 | 14.5 | 0.00 | 0.00 | 0.00 | 45 | 1025.8 |
| 20260508075004 | 21 | 82 | 6.4 | 14.5 | 0.00 | 0.00 | 0.00 | 45 | 1025.8 |
| 20260508074004 | 21 | 46 | 6.4 | 20.9 | 0.00 | 0.00 | 0.00 | 45 | 1025.7 |
| 20260508073004 | 22 | 54 | 3.2 | 14.5 | 0.00 | 0.00 | 0.00 | 45 | 1025.7 |
| 20260508072004 | 22 | 88 | 4.8 | 12.9 | 0.00 | 0.00 | 0.00 | 46 | 1025.8 |
| 20260508071004 | 22 | 41 | 4.8 | 14.5 | 0.00 | 0.00 | 0.00 | 45 | 1025.8 |
| 20260508070004 | 22 | 52 | 4.8 | 17.7 | 0.00 | 0.00 | 0.00 | 45 | 1025.8 |
| 20260508065004 | 22 | 35 | 4.8 | 9.7 | 0.00 | 0.00 | 0.00 | 45 | 1025.9 |
| 20260508064004 | 22 | 65 | 6.4 | 24.1 | 0.00 | 0.00 | 0.00 | 47 | 1025.9 |
| 20260508063004 | 22 | 32 | 4.8 | 16.1 | 0.00 | 0.00 | 0.00 | 46 | 1026.0 |
| 20260508062025 | 21 | 35 | 8.0 | 25.7 | 0.00 | 0.00 | 0.00 | 45 | 1026.1 |
| 20260508061004 | 21 | 16 | 4.8 | 16.1 | 0.00 | 0.00 | 0.00 | 48 | 1026.1 |
| 20260508060004 | 21 | 109 | 4.8 | 12.9 | 0.00 | 0.00 | 0.00 | 48 | 1026.2 |
| 20260508055004 | 21 | 46 | 6.4 | 19.3 | 0.00 | 0.00 | 0.00 | 48 | 1026.3 |
| 20260508054004 | 21 | 92 | 6.4 | 16.1 | 0.00 | 0.00 | 0.00 | 50 | 1026.4 |
| 20260508053004 | 21 | 64 | 6.4 | 20.9 | 0.00 | 0.00 | 0.00 | 50 | 1026.5 |
| 20260508052004 | 21 | 123 | 4.8 | 17.7 | 0.00 | 0.00 | 0.00 | 50 | 1026.7 |
| 20260508051003 | 21 | 41 | 6.4 | 16.1 | 0.00 | 0.00 | 0.00 | 52 | 1026.8 |
| 20260508050004 | 20 | 29 | 6.4 | 25.7 | 0.00 | 0.00 | 0.00 | 51 | 1026.9 |
| 20260508045003 | 20 | 33 | 4.8 | 16.1 | 0.00 | 0.00 | 0.00 | 53 | 1027.2 |
| 20260508044003 | 20 | 11 | 6.4 | 20.9 | 0.00 | 0.00 | 0.00 | 56 | 1027.2 |
| 20260508043003 | 20 | 33 | 6.4 | 30.6 | 0.00 | 0.00 | 0.00 | 55 | 1027.5 |
| 20260508042003 | 20 | 21 | 8.0 | 20.9 | 0.00 | 0.00 | 0.00 | 57 | 1027.8 |
| 20260508041003 | 20 | 14 | 9.7 | 24.1 | 0.00 | 0.00 | 0.00 | 56 | 1028.0 |
| 20260508040004 | 20 | 12 | 8.0 | 29.0 | 0.00 | 0.00 | 0.00 | 56 | 1028.3 |
| 20260508035003 | 19 | 25 | 8.0 | 20.9 | 0.00 | 0.00 | 0.00 | 57 | 1028.4 |
| 20260508034024 | 19 | 16 | 8.0 | 19.3 | 0.00 | 0.00 | 0.00 | 56 | 1028.7 |
| 20260508033003 | 19 | 14 | 8.0 | 24.1 | 0.00 | 0.00 | 0.00 | 57 | 1028.8 |
| 20260508032004 | 18 | 29 | 6.4 | 16.1 | 0.00 | 0.00 | 0.00 | 58 | 1028.9 |
| 20260508031025 | 18 | 34 | 8.0 | 24.1 | 0.00 | 0.00 | 0.00 | 59 | 1029.1 |
| 20260508030024 | 18 | 24 | 9.7 | 29.0 | 0.00 | 0.00 | 0.00 | 59 | 1029.2 |
| 20260508025003 | 18 | 38 | 9.7 | 33.8 | 0.00 | 0.00 | 0.00 | 59 | 1029.3 |